TIB weather

Tibú Airport
Tibú, Norte de Santander Department, Colombia

Public forecast

Using degrees Celsius for public forecast. Weather courtesy of forecast.io.

Closest aviation weather report (METAR) to Tibú Airport

Report is more than 6 hours old.

Closest report is La Fria Airport, 36.0 nm (66.8 km) SE. Retrieved 2019/11/20 12:00 UTC (3 months ago):

SVLF 201200Z N191000ZIL

Closest aviation forecast (TAF) to Tibú Airport

Closest forecast is Camilo Daza International Airport, 44.2 nm (81.9 km) SSE. Retrieved 2020/02/28 12:35 UTC (0 seconds ago):

TAF SKCC 281030Z 2812/2912 VRB03KT 9999 SCT018 SCT090 TEMPO 2812/2814 3000 BCFG SCT005 BKN070 BECMG 2815/2817 36013KT TX33/2819Z TN22/2911Z